createdAt,value
2023-05-23T00:03:22.971Z,11.05
2023-05-23T00:08:26.701Z,11.60
2023-05-23T00:13:34.848Z,10.63
2023-05-23T00:18:38.445Z,10.95
2023-05-23T00:23:42.327Z,12.73
2023-05-23T00:28:47.126Z,10.40
2023-05-23T00:33:50.659Z,11.48
2023-05-23T00:38:54.338Z,11.95
2023-05-23T00:43:59.834Z,13.05
2023-05-23T00:49:04.108Z,13.35
2023-05-23T00:54:08.362Z,12.02
2023-05-23T00:59:13.888Z,12.95
2023-05-23T01:04:17.673Z,11.35
2023-05-23T01:09:22.341Z,10.65
2023-05-23T01:14:39.545Z,9.80
2023-05-23T01:20:02.200Z,11.07
2023-05-23T01:25:25.284Z,9.38
2023-05-23T01:30:34.260Z,9.85
2023-05-23T01:35:39.062Z,10.95
2023-05-23T01:40:42.554Z,10.13
2023-05-23T01:45:49.156Z,9.82
2023-05-23T01:50:53.104Z,12.93
2023-05-23T01:55:57.377Z,12.85
2023-05-23T02:01:02.436Z,10.48
2023-05-23T02:06:07.508Z,10.88
2023-05-23T02:11:11.517Z,9.95
2023-05-23T02:16:18.058Z,11.07
2023-05-23T02:21:22.045Z,10.98
2023-05-23T02:26:27.628Z,9.15
2023-05-23T02:31:32.709Z,10.93
2023-05-23T02:36:37.082Z,10.82
2023-05-23T02:41:41.091Z,12.82
2023-05-23T02:46:46.086Z,10.30
2023-05-23T02:51:49.650Z,10.45
2023-05-23T02:56:54.851Z,11.20
2023-05-23T03:02:00.691Z,10.50
2023-05-23T03:07:07.130Z,9.05
2023-05-23T03:12:14.944Z,9.60
2023-05-23T03:17:20.216Z,8.90
2023-05-23T03:22:23.680Z,13.75
2023-05-23T03:27:27.028Z,10.85
2023-05-23T03:32:31.972Z,9.45
2023-05-23T03:37:35.353Z,10.60
2023-05-23T03:42:40.205Z,9.40
2023-05-23T03:47:46.970Z,9.17
2023-05-23T03:52:50.902Z,10.20
2023-05-23T03:57:54.461Z,10.18
2023-05-23T04:02:59.455Z,9.57
2023-05-23T04:08:03.142Z,9.65
2023-05-23T04:13:09.673Z,9.65
2023-05-23T04:18:17.410Z,9.65
2023-05-23T04:23:21.213Z,10.07
2023-05-23T04:33:34.263Z,9.50
2023-05-23T04:43:46.070Z,8.85
2023-05-23T04:49:04.086Z,17.00
2023-05-23T04:54:07.734Z,11.75
2023-05-23T04:59:11.503Z,8.48
2023-05-23T05:04:16.715Z,13.50
2023-05-23T05:09:22.137Z,10.02
2023-05-23T05:14:27.863Z,9.82
2023-05-23T05:19:33.108Z,9.80
2023-05-23T05:24:36.619Z,9.70
2023-05-23T05:29:40.113Z,9.55
2023-05-23T05:34:49.128Z,9.95
2023-05-23T05:39:54.842Z,8.32
2023-05-23T05:44:58.522Z,8.85
2023-05-23T05:50:03.674Z,10.02
2023-05-23T05:55:11.304Z,8.55
2023-05-23T06:00:19.373Z,9.70
2023-05-23T06:05:24.278Z,8.40
2023-05-23T06:10:28.008Z,8.10
2023-05-23T06:15:31.542Z,10.35
2023-05-23T06:20:36.416Z,9.07
2023-05-23T06:25:51.208Z,8.38
2023-05-23T06:30:54.652Z,8.68
2023-05-23T06:35:59.454Z,8.60
2023-05-23T06:41:03.863Z,9.13
2023-05-23T06:46:07.945Z,8.80
2023-05-23T06:51:12.761Z,8.88
2023-05-23T06:56:17.063Z,7.82
2023-05-23T07:01:32.635Z,8.85
2023-05-23T07:06:39.842Z,9.68
2023-05-23T07:11:44.572Z,7.80
2023-05-23T07:16:49.306Z,8.23
2023-05-23T07:21:54.970Z,16.85
2023-05-23T07:26:58.986Z,17.33
2023-05-23T07:32:03.581Z,14.02
2023-05-23T07:37:08.588Z,15.95
2023-05-23T07:42:18.640Z,19.20
2023-05-23T07:47:22.238Z,16.15
2023-05-23T07:52:27.113Z,16.40
2023-05-23T07:57:30.909Z,15.00
2023-05-23T08:02:34.566Z,15.57
2023-05-23T08:07:39.984Z,12.60
2023-05-23T08:12:43.698Z,15.23
2023-05-23T08:17:51.676Z,12.15
2023-05-23T08:22:58.356Z,14.90
2023-05-23T08:28:02.835Z,13.60
2023-05-23T08:33:27.857Z,10.13
2023-05-23T08:38:36.232Z,19.85
2023-05-23T08:43:48.032Z,13.18
2023-05-23T08:49:00.987Z,12.25
2023-05-23T08:54:09.298Z,12.40
2023-05-23T08:59:14.318Z,10.25
2023-05-23T09:04:19.368Z,12.25
2023-05-23T09:09:31.854Z,12.80
2023-05-23T09:14:38.308Z,14.05
2023-05-23T09:19:46.925Z,12.07
2023-05-23T09:25:00.319Z,12.95
2023-05-23T09:30:09.875Z,10.85
2023-05-23T09:35:14.547Z,12.57
2023-05-23T09:40:21.548Z,14.57
2023-05-23T09:45:32.999Z,12.43
2023-05-23T09:50:37.968Z,14.00
2023-05-23T09:55:42.984Z,13.07
2023-05-23T10:00:48.754Z,11.65
2023-05-23T10:05:58.279Z,15.63
2023-05-23T10:12:44.610Z,14.48
2023-05-23T10:18:17.231Z,15.77
2023-05-23T10:23:21.328Z,15.50
2023-05-23T10:28:27.312Z,19.65
2023-05-23T10:33:36.629Z,19.45
2023-05-23T10:38:48.942Z,20.77
2023-05-23T10:44:08.742Z,18.45
2023-05-23T10:49:12.978Z,15.18
2023-05-23T10:54:16.793Z,14.15
2023-05-23T10:59:29.037Z,17.15
2023-05-23T11:04:32.413Z,15.43
2023-05-23T11:09:36.125Z,13.02
2023-05-23T11:14:56.625Z,11.52
2023-05-23T11:20:06.750Z,12.38
2023-05-23T11:25:12.330Z,11.85
2023-05-23T11:30:18.853Z,12.30
2023-05-23T11:35:23.196Z,9.85
2023-05-23T11:40:30.198Z,10.70
2023-05-23T11:45:37.145Z,9.63
2023-05-23T11:50:49.413Z,8.70
2023-05-23T11:55:55.347Z,8.23
2023-05-23T12:01:05.108Z,8.60
2023-05-23T12:06:09.963Z,8.63
2023-05-23T12:11:15.337Z,10.10
2023-05-23T12:16:20.164Z,7.15
2023-05-23T12:21:27.721Z,8.02
2023-05-23T12:26:31.272Z,7.70
2023-05-23T12:31:36.081Z,6.93
2023-05-23T12:36:48.634Z,7.35
2023-05-23T12:41:53.172Z,6.75
2023-05-23T12:46:58.126Z,9.02
2023-05-23T12:52:01.610Z,8.48
2023-05-23T12:57:05.163Z,5.80
2023-05-23T13:02:10.134Z,6.95
2023-05-23T13:07:13.545Z,7.50
2023-05-23T13:12:17.038Z,7.90
2023-05-23T13:17:21.973Z,7.38
2023-05-23T13:22:25.841Z,7.40
2023-05-23T13:27:29.516Z,6.15
2023-05-23T13:32:34.301Z,7.15
2023-05-23T13:37:38.123Z,6.82
2023-05-23T13:42:41.748Z,7.72
2023-05-23T13:47:47.310Z,5.50
2023-05-23T13:52:51.073Z,6.32
2023-05-23T13:57:54.448Z,5.43
2023-05-23T14:02:59.183Z,5.32
2023-05-23T14:08:02.794Z,6.20
2023-05-23T14:13:07.696Z,6.88
2023-05-23T14:18:12.737Z,6.93
2023-05-23T14:23:16.323Z,5.25
2023-05-23T14:28:19.711Z,5.82
2023-05-23T14:33:24.690Z,6.25
2023-05-23T14:38:28.291Z,5.55
2023-05-23T14:43:31.677Z,5.18
2023-05-23T14:48:36.636Z,5.90
2023-05-23T14:53:40.037Z,6.28
2023-05-23T14:58:45.755Z,5.30
2023-05-23T15:03:50.633Z,5.53
2023-05-23T15:08:54.182Z,5.80
2023-05-23T15:13:57.615Z,6.70
2023-05-23T15:19:02.533Z,5.45
2023-05-23T15:24:08.549Z,5.43
2023-05-23T15:29:13.227Z,6.40
2023-05-23T15:34:18.176Z,5.95
2023-05-23T15:39:22.194Z,5.50
2023-05-23T15:44:25.618Z,5.88
2023-05-23T15:49:30.666Z,5.88
2023-05-23T15:54:34.056Z,4.93
2023-05-23T15:59:38.442Z,6.10
2023-05-23T16:04:43.415Z,6.50
2023-05-23T16:09:46.860Z,5.43
2023-05-23T16:14:50.488Z,4.97
2023-05-23T16:19:55.298Z,7.17
2023-05-23T16:25:01.696Z,4.78
2023-05-23T16:30:07.044Z,5.05
2023-05-23T16:35:12.177Z,5.85
2023-05-23T16:40:16.706Z,4.57
2023-05-23T16:45:21.285Z,7.53
2023-05-23T16:50:26.136Z,5.78
2023-05-23T16:55:30.338Z,5.93
2023-05-23T17:00:35.782Z,5.70
2023-05-23T17:05:40.846Z,4.03
2023-05-23T17:10:44.744Z,5.00
2023-05-23T17:15:48.199Z,5.63
2023-05-23T17:20:53.052Z,5.63
2023-05-23T17:25:58.786Z,6.13
2023-05-23T17:31:02.207Z,6.22
2023-05-23T17:36:07.571Z,6.88
2023-05-23T17:41:11.032Z,12.23
2023-05-23T17:46:14.447Z,7.95
2023-05-23T17:51:19.350Z,11.45
2023-05-23T17:56:24.862Z,11.77
2023-05-23T18:01:29.188Z,13.38
2023-05-23T18:06:33.997Z,13.45
2023-05-23T18:11:38.062Z,11.70
2023-05-23T18:16:41.854Z,11.43
2023-05-23T18:21:46.898Z,12.05
2023-05-23T18:26:50.405Z,9.88
2023-05-23T18:31:54.164Z,14.05
2023-05-23T18:36:58.991Z,10.57
2023-05-23T18:42:02.421Z,13.57
2023-05-23T18:47:06.460Z,10.75
2023-05-23T18:52:11.694Z,10.02
2023-05-23T18:57:17.356Z,9.48
2023-05-23T19:02:21.001Z,8.52
2023-05-23T19:07:25.913Z,8.73
2023-05-23T19:12:29.302Z,8.25
2023-05-23T19:17:32.899Z,9.05
2023-05-23T19:22:50.350Z,8.70
2023-05-23T19:27:54.763Z,8.98
2023-05-23T19:33:01.202Z,9.20
2023-05-23T19:38:06.061Z,8.63
2023-05-23T19:43:09.456Z,8.40
2023-05-23T19:48:12.901Z,9.50
2023-05-23T19:53:17.809Z,7.85
2023-05-23T19:58:21.646Z,8.13
2023-05-23T20:03:25.112Z,7.55
2023-05-23T20:08:29.908Z,8.07
2023-05-23T20:13:33.288Z,6.35
2023-05-23T20:18:36.715Z,10.07
2023-05-23T20:23:43.484Z,6.80
2023-05-23T20:28:47.103Z,6.90
2023-05-23T20:33:51.354Z,7.13
2023-05-23T20:38:56.151Z,5.82
2023-05-23T20:44:00.308Z,8.43
2023-05-23T20:49:04.416Z,17.05
2023-05-23T20:54:09.581Z,8.90
2023-05-23T20:59:13.189Z,8.93
2023-05-23T21:04:18.734Z,10.18
2023-05-23T21:09:23.731Z,12.00
2023-05-23T21:14:27.302Z,11.00
2023-05-23T21:19:31.030Z,8.13
2023-05-23T21:24:35.914Z,7.65
2023-05-23T21:29:39.281Z,6.57
2023-05-23T21:34:42.711Z,12.25
2023-05-23T21:39:51.973Z,6.63
2023-05-23T21:44:56.162Z,9.18
2023-05-23T21:49:59.697Z,8.88
2023-05-23T21:55:04.832Z,7.38
2023-05-23T22:00:12.968Z,4.95
2023-05-23T22:05:16.670Z,6.10
2023-05-23T22:10:21.535Z,9.88
2023-05-23T22:15:25.009Z,7.43
2023-05-23T22:20:29.747Z,9.10
2023-05-23T22:25:35.219Z,6.57
2023-05-23T22:30:38.620Z,6.07
2023-05-23T22:35:42.876Z,4.90
2023-05-23T22:40:47.844Z,7.50
2023-05-23T22:45:52.413Z,5.60
2023-05-23T22:50:57.154Z,6.43
2023-05-23T22:56:02.476Z,7.22
2023-05-23T23:01:06.339Z,7.78
2023-05-23T23:06:09.815Z,4.70
2023-05-23T23:11:14.606Z,5.90
2023-05-23T23:16:19.525Z,5.43
2023-05-23T23:21:23.163Z,7.97
2023-05-23T23:26:27.991Z,5.38
2023-05-23T23:31:31.560Z,4.78
2023-05-23T23:36:34.998Z,6.15
2023-05-23T23:41:39.763Z,3.65
2023-05-23T23:46:43.343Z,8.05
2023-05-23T23:51:46.868Z,6.85
2023-05-23T23:56:51.680Z,7.03
